sensor_id;sensor_type;location;lat;lon;timestamp;temperature;humidity
21267;DHT22;10791;53.108;18.326;2022-10-01T00:00:10;7.10;99.90
21267;DHT22;10791;53.108;18.326;2022-10-01T00:05:33;7.00;99.90
21267;DHT22;10791;53.108;18.326;2022-10-01T00:10:40;7.00;99.90
21267;DHT22;10791;53.108;18.326;2022-10-01T00:15:43;6.90;99.90
21267;DHT22;10791;53.108;18.326;2022-10-01T00:20:47;6.80;99.90
21267;DHT22;10791;53.108;18.326;2022-10-01T00:25:50;6.70;99.90
21267;DHT22;10791;53.108;18.326;2022-10-01T00:30:54;6.70;99.90
21267;DHT22;10791;53.108;18.326;2022-10-01T00:35:57;6.60;99.90
21267;DHT22;10791;53.108;18.326;2022-10-01T00:41:01;6.50;99.90
21267;DHT22;10791;53.108;18.326;2022-10-01T00:46:35;6.40;99.90
21267;DHT22;10791;53.108;18.326;2022-10-01T00:51:50;6.30;99.90
21267;DHT22;10791;53.108;18.326;2022-10-01T00:56:57;6.20;99.90
21267;DHT22;10791;53.108;18.326;2022-10-01T01:02:01;6.10;99.90
21267;DHT22;10791;53.108;18.326;2022-10-01T01:07:05;6.00;99.90
21267;DHT22;10791;53.108;18.326;2022-10-01T01:33:35;5.70;99.90
21267;DHT22;10791;53.108;18.326;2022-10-01T01:39:07;5.60;99.90
21267;DHT22;10791;53.108;18.326;2022-10-01T01:44:11;5.50;99.90
21267;DHT22;10791;53.108;18.326;2022-10-01T01:49:18;5.50;99.90
21267;DHT22;10791;53.108;18.326;2022-10-01T01:54:22;5.40;99.90
21267;DHT22;10791;53.108;18.326;2022-10-01T01:59:27;5.40;99.90
21267;DHT22;10791;53.108;18.326;2022-10-01T02:04:43;5.40;99.90
21267;DHT22;10791;53.108;18.326;2022-10-01T02:16:17;5.40;99.90
21267;DHT22;10791;53.108;18.326;2022-10-01T02:20:54;5.50;99.90
21267;DHT22;10791;53.108;18.326;2022-10-01T02:26:06;5.60;99.90
21267;DHT22;10791;53.108;18.326;2022-10-01T02:31:11;5.60;99.90
21267;DHT22;10791;53.108;18.326;2022-10-01T02:36:16;5.80;99.90
21267;DHT22;10791;53.108;18.326;2022-10-01T02:41:27;5.80;99.90
21267;DHT22;10791;53.108;18.326;2022-10-01T02:46:42;5.90;99.90
21267;DHT22;10791;53.108;18.326;2022-10-01T02:52:07;6.00;99.90
21267;DHT22;10791;53.108;18.326;2022-10-01T02:57:16;6.10;99.90
21267;DHT22;10791;53.108;18.326;2022-10-01T03:02:28;6.10;99.90
21267;DHT22;10791;53.108;18.326;2022-10-01T03:07:33;6.10;99.90
21267;DHT22;10791;53.108;18.326;2022-10-01T03:12:39;6.00;99.90
21267;DHT22;10791;53.108;18.326;2022-10-01T03:17:51;5.90;99.90
21267;DHT22;10791;53.108;18.326;2022-10-01T03:22:56;5.90;99.90
21267;DHT22;10791;53.108;18.326;2022-10-01T03:28:00;5.80;99.90
21267;DHT22;10791;53.108;18.326;2022-10-01T03:33:03;5.70;99.90
21267;DHT22;10791;53.108;18.326;2022-10-01T03:38:07;5.70;99.90
21267;DHT22;10791;53.108;18.326;2022-10-01T03:43:10;5.60;99.90
21267;DHT22;10791;53.108;18.326;2022-10-01T03:48:14;5.50;99.90
21267;DHT22;10791;53.108;18.326;2022-10-01T03:53:17;5.40;99.90
21267;DHT22;10791;53.108;18.326;2022-10-01T03:58:21;5.40;99.90
21267;DHT22;10791;53.108;18.326;2022-10-01T04:03:25;5.30;99.90
21267;DHT22;10791;53.108;18.326;2022-10-01T04:08:28;5.30;99.90
21267;DHT22;10791;53.108;18.326;2022-10-01T04:13:32;5.30;99.90
21267;DHT22;10791;53.108;18.326;2022-10-01T04:18:36;5.20;99.90
21267;DHT22;10791;53.108;18.326;2022-10-01T04:23:39;5.20;99.90
21267;DHT22;10791;53.108;18.326;2022-10-01T04:28:43;5.20;99.90
21267;DHT22;10791;53.108;18.326;2022-10-01T04:33:48;5.20;99.90
21267;DHT22;10791;53.108;18.326;2022-10-01T04:38:55;5.20;99.90
21267;DHT22;10791;53.108;18.326;2022-10-01T04:44:04;5.20;99.90
21267;DHT22;10791;53.108;18.326;2022-10-01T04:49:07;5.10;99.90
21267;DHT22;10791;53.108;18.326;2022-10-01T04:54:10;5.00;99.90
21267;DHT22;10791;53.108;18.326;2022-10-01T04:59:13;4.90;99.90
21267;DHT22;10791;53.108;18.326;2022-10-01T05:04:17;4.90;99.90
21267;DHT22;10791;53.108;18.326;2022-10-01T05:09:20;4.90;99.90
21267;DHT22;10791;53.108;18.326;2022-10-01T05:14:23;4.90;99.90
21267;DHT22;10791;53.108;18.326;2022-10-01T05:19:28;4.90;99.90
21267;DHT22;10791;53.108;18.326;2022-10-01T05:24:32;4.90;99.90
21267;DHT22;10791;53.108;18.326;2022-10-01T05:29:35;4.90;99.90
21267;DHT22;10791;53.108;18.326;2022-10-01T05:34:40;4.90;99.90
21267;DHT22;10791;53.108;18.326;2022-10-01T05:39:43;5.00;99.90
21267;DHT22;10791;53.108;18.326;2022-10-01T05:44:46;5.00;99.90
21267;DHT22;10791;53.108;18.326;2022-10-01T05:49:51;5.10;99.90
21267;DHT22;10791;53.108;18.326;2022-10-01T05:54:54;5.10;99.90
21267;DHT22;10791;53.108;18.326;2022-10-01T05:59:57;5.20;99.90
21267;DHT22;10791;53.108;18.326;2022-10-01T06:05:00;5.30;99.90
21267;DHT22;10791;53.108;18.326;2022-10-01T06:10:04;5.40;99.90
21267;DHT22;10791;53.108;18.326;2022-10-01T06:15:08;5.50;99.90
21267;DHT22;10791;53.108;18.326;2022-10-01T06:20:13;5.60;99.90
21267;DHT22;10791;53.108;18.326;2022-10-01T06:25:17;5.80;99.90
21267;DHT22;10791;53.108;18.326;2022-10-01T06:30:21;5.90;99.90
21267;DHT22;10791;53.108;18.326;2022-10-01T06:35:24;6.10;99.90
21267;DHT22;10791;53.108;18.326;2022-10-01T06:40:28;6.30;99.90
21267;DHT22;10791;53.108;18.326;2022-10-01T06:45:36;6.60;99.90
21267;DHT22;10791;53.108;18.326;2022-10-01T06:50:42;6.80;99.90
21267;DHT22;10791;53.108;18.326;2022-10-01T06:55:45;7.10;99.90
21267;DHT22;10791;53.108;18.326;2022-10-01T07:00:49;7.40;99.90
21267;DHT22;10791;53.108;18.326;2022-10-01T07:05:53;7.70;99.90
21267;DHT22;10791;53.108;18.326;2022-10-01T07:11:01;8.00;99.90
21267;DHT22;10791;53.108;18.326;2022-10-01T07:16:04;8.30;99.90
21267;DHT22;10791;53.108;18.326;2022-10-01T07:21:08;8.60;99.90
21267;DHT22;10791;53.108;18.326;2022-10-01T07:26:11;8.80;99.90
21267;DHT22;10791;53.108;18.326;2022-10-01T07:31:14;9.10;99.90
21267;DHT22;10791;53.108;18.326;2022-10-01T07:36:17;9.40;99.90
21267;DHT22;10791;53.108;18.326;2022-10-01T07:41:21;9.50;99.90
21267;DHT22;10791;53.108;18.326;2022-10-01T07:46:24;9.80;99.90
21267;DHT22;10791;53.108;18.326;2022-10-01T07:51:27;10.00;99.90
21267;DHT22;10791;53.108;18.326;2022-10-01T07:56:32;10.30;99.90
21267;DHT22;10791;53.108;18.326;2022-10-01T08:01:36;10.50;99.90
21267;DHT22;10791;53.108;18.326;2022-10-01T08:06:40;10.70;99.90
21267;DHT22;10791;53.108;18.326;2022-10-01T08:11:43;11.00;99.90
21267;DHT22;10791;53.108;18.326;2022-10-01T08:16:47;11.30;99.90
21267;DHT22;10791;53.108;18.326;2022-10-01T08:21:51;11.50;99.90
21267;DHT22;10791;53.108;18.326;2022-10-01T08:26:54;11.80;99.90
21267;DHT22;10791;53.108;18.326;2022-10-01T08:31:57;12.20;99.90
21267;DHT22;10791;53.108;18.326;2022-10-01T08:37:01;12.50;99.90
21267;DHT22;10791;53.108;18.326;2022-10-01T08:42:31;12.80;99.90
21267;DHT22;10791;53.108;18.326;2022-10-01T08:47:41;13.10;99.90
21267;DHT22;10791;53.108;18.326;2022-10-01T08:52:56;13.40;99.90
21267;DHT22;10791;53.108;18.326;2022-10-01T08:58:03;13.40;99.90
21267;DHT22;10791;53.108;18.326;2022-10-01T09:03:12;13.70;99.90
21267;DHT22;10791;53.108;18.326;2022-10-01T09:14:06;14.20;99.90
21267;DHT22;10791;53.108;18.326;2022-10-01T09:19:48;14.60;99.90
21267;DHT22;10791;53.108;18.326;2022-10-01T09:40:52;15.60;99.90
21267;DHT22;10791;53.108;18.326;2022-10-01T09:45:57;15.70;99.90
21267;DHT22;10791;53.108;18.326;2022-10-01T09:56:29;16.40;99.90
21267;DHT22;10791;53.108;18.326;2022-10-01T10:01:41;16.40;99.90
21267;DHT22;10791;53.108;18.326;2022-10-01T10:06:46;16.40;99.90
21267;DHT22;10791;53.108;18.326;2022-10-01T10:11:50;16.50;99.90
21267;DHT22;10791;53.108;18.326;2022-10-01T10:16:54;16.60;99.90
21267;DHT22;10791;53.108;18.326;2022-10-01T10:22:10;16.70;99.90
21267;DHT22;10791;53.108;18.326;2022-10-01T10:27:26;16.70;99.90
21267;DHT22;10791;53.108;18.326;2022-10-01T10:32:30;16.70;99.90
21267;DHT22;10791;53.108;18.326;2022-10-01T10:37:35;16.70;99.90
21267;DHT22;10791;53.108;18.326;2022-10-01T10:42:49;16.70;99.90
21267;DHT22;10791;53.108;18.326;2022-10-01T10:47:53;16.60;99.90
21267;DHT22;10791;53.108;18.326;2022-10-01T10:52:57;16.30;99.90
21267;DHT22;10791;53.108;18.326;2022-10-01T10:58:12;16.20;99.90
21267;DHT22;10791;53.108;18.326;2022-10-01T11:03:20;16.20;99.90
21267;DHT22;10791;53.108;18.326;2022-10-01T11:08:26;16.20;99.90
21267;DHT22;10791;53.108;18.326;2022-10-01T11:41:37;16.70;99.90
21267;DHT22;10791;53.108;18.326;2022-10-01T11:57:21;16.10;99.90
21267;DHT22;10791;53.108;18.326;2022-10-01T12:02:53;16.20;99.90
21267;DHT22;10791;53.108;18.326;2022-10-01T12:08:19;16.30;99.90
21267;DHT22;10791;53.108;18.326;2022-10-01T12:13:46;16.30;99.90
21267;DHT22;10791;53.108;18.326;2022-10-01T12:19:04;16.30;99.90
21267;DHT22;10791;53.108;18.326;2022-10-01T12:24:15;16.30;99.90
21267;DHT22;10791;53.108;18.326;2022-10-01T12:29:30;16.30;99.90
21267;DHT22;10791;53.108;18.326;2022-10-01T12:34:42;16.40;99.90
21267;DHT22;10791;53.108;18.326;2022-10-01T12:40:21;16.40;99.90
21267;DHT22;10791;53.108;18.326;2022-10-01T12:56:27;16.30;99.90
21267;DHT22;10791;53.108;18.326;2022-10-01T13:07:19;16.30;99.90
21267;DHT22;10791;53.108;18.326;2022-10-01T13:17:51;15.80;99.90
21267;DHT22;10791;53.108;18.326;2022-10-01T13:23:52;15.80;99.90
21267;DHT22;10791;53.108;18.326;2022-10-01T13:28:41;15.70;99.90
21267;DHT22;10791;53.108;18.326;2022-10-01T13:33:58;15.70;99.90
21267;DHT22;10791;53.108;18.326;2022-10-01T13:39:07;15.70;99.90
21267;DHT22;10791;53.108;18.326;2022-10-01T13:44:32;15.70;99.90
21267;DHT22;10791;53.108;18.326;2022-10-01T13:49:36;15.60;99.90
21267;DHT22;10791;53.108;18.326;2022-10-01T13:54:49;15.70;99.90
21267;DHT22;10791;53.108;18.326;2022-10-01T14:05:55;15.80;99.90
21267;DHT22;10791;53.108;18.326;2022-10-01T14:10:56;15.50;99.90
21267;DHT22;10791;53.108;18.326;2022-10-01T14:16:20;15.40;99.90
21267;DHT22;10791;53.108;18.326;2022-10-01T14:32:26;15.10;99.90
21267;DHT22;10791;53.108;18.326;2022-10-01T14:37:37;15.00;99.90
21267;DHT22;10791;53.108;18.326;2022-10-01T14:42:40;14.90;99.90
21267;DHT22;10791;53.108;18.326;2022-10-01T14:47:44;14.80;99.90
21267;DHT22;10791;53.108;18.326;2022-10-01T14:52:49;14.80;99.90
21267;DHT22;10791;53.108;18.326;2022-10-01T14:57:54;14.60;99.90
21267;DHT22;10791;53.108;18.326;2022-10-01T15:03:12;14.50;99.90
21267;DHT22;10791;53.108;18.326;2022-10-01T15:08:23;14.50;99.90
21267;DHT22;10791;53.108;18.326;2022-10-01T15:13:31;14.40;99.90
21267;DHT22;10791;53.108;18.326;2022-10-01T15:18:34;14.30;99.90
21267;DHT22;10791;53.108;18.326;2022-10-01T15:23:39;14.20;99.90
21267;DHT22;10791;53.108;18.326;2022-10-01T15:28:43;14.10;99.90
21267;DHT22;10791;53.108;18.326;2022-10-01T15:33:46;14.00;99.90
21267;DHT22;10791;53.108;18.326;2022-10-01T15:38:49;14.00;99.90
21267;DHT22;10791;53.108;18.326;2022-10-01T15:43:53;13.80;99.90
21267;DHT22;10791;53.108;18.326;2022-10-01T15:49:19;13.80;99.90
21267;DHT22;10791;53.108;18.326;2022-10-01T15:54:22;13.70;99.90
21267;DHT22;10791;53.108;18.326;2022-10-01T15:59:26;13.60;99.90
21267;DHT22;10791;53.108;18.326;2022-10-01T16:04:30;13.50;99.90
21267;DHT22;10791;53.108;18.326;2022-10-01T16:09:33;13.40;99.90
21267;DHT22;10791;53.108;18.326;2022-10-01T16:14:41;13.30;99.90
21267;DHT22;10791;53.108;18.326;2022-10-01T16:19:50;13.30;99.90
21267;DHT22;10791;53.108;18.326;2022-10-01T16:24:56;13.20;99.90
21267;DHT22;10791;53.108;18.326;2022-10-01T16:30:02;13.20;99.90
21267;DHT22;10791;53.108;18.326;2022-10-01T16:35:18;13.20;99.90
21267;DHT22;10791;53.108;18.326;2022-10-01T16:40:27;13.10;99.90
21267;DHT22;10791;53.108;18.326;2022-10-01T16:45:37;13.20;99.90
21267;DHT22;10791;53.108;18.326;2022-10-01T16:50:41;13.10;99.90
21267;DHT22;10791;53.108;18.326;2022-10-01T16:55:46;13.20;99.90
21267;DHT22;10791;53.108;18.326;2022-10-01T17:00:49;13.20;99.90
21267;DHT22;10791;53.108;18.326;2022-10-01T17:05:57;13.20;99.90
21267;DHT22;10791;53.108;18.326;2022-10-01T17:11:01;12.90;99.90
21267;DHT22;10791;53.108;18.326;2022-10-01T17:16:08;12.10;99.90
21267;DHT22;10791;53.108;18.326;2022-10-01T17:21:11;11.60;99.90
21267;DHT22;10791;53.108;18.326;2022-10-01T17:26:15;11.30;99.90
21267;DHT22;10791;53.108;18.326;2022-10-01T17:31:19;11.20;99.90
21267;DHT22;10791;53.108;18.326;2022-10-01T17:36:22;11.20;99.90
21267;DHT22;10791;53.108;18.326;2022-10-01T17:41:26;11.20;99.90
21267;DHT22;10791;53.108;18.326;2022-10-01T17:46:30;11.30;99.90
21267;DHT22;10791;53.108;18.326;2022-10-01T17:51:34;11.30;99.90
21267;DHT22;10791;53.108;18.326;2022-10-01T17:56:38;11.30;99.90
21267;DHT22;10791;53.108;18.326;2022-10-01T18:01:42;11.30;99.90
21267;DHT22;10791;53.108;18.326;2022-10-01T18:06:46;11.20;99.90
21267;DHT22;10791;53.108;18.326;2022-10-01T18:11:51;11.20;99.90
21267;DHT22;10791;53.108;18.326;2022-10-01T18:16:54;11.20;99.90
21267;DHT22;10791;53.108;18.326;2022-10-01T18:21:58;11.20;99.90
21267;DHT22;10791;53.108;18.326;2022-10-01T18:27:03;11.10;99.90
21267;DHT22;10791;53.108;18.326;2022-10-01T18:32:30;11.10;99.90
21267;DHT22;10791;53.108;18.326;2022-10-01T18:37:35;11.10;99.90
21267;DHT22;10791;53.108;18.326;2022-10-01T18:53:49;11.20;99.90
21267;DHT22;10791;53.108;18.326;2022-10-01T18:59:22;11.20;99.90
21267;DHT22;10791;53.108;18.326;2022-10-01T19:25:53;11.00;99.90
21267;DHT22;10791;53.108;18.326;2022-10-01T19:36:04;11.00;99.90
21267;DHT22;10791;53.108;18.326;2022-10-01T19:41:41;11.00;99.90
21267;DHT22;10791;53.108;18.326;2022-10-01T19:46:48;11.00;99.90
21267;DHT22;10791;53.108;18.326;2022-10-01T19:52:11;11.00;99.90
21267;DHT22;10791;53.108;18.326;2022-10-01T19:57:26;11.00;99.90
21267;DHT22;10791;53.108;18.326;2022-10-01T20:02:57;11.00;99.90
21267;DHT22;10791;53.108;18.326;2022-10-01T20:08:40;11.00;99.90
21267;DHT22;10791;53.108;18.326;2022-10-01T20:14:06;10.90;99.90
21267;DHT22;10791;53.108;18.326;2022-10-01T20:30:09;11.00;99.90
21267;DHT22;10791;53.108;18.326;2022-10-01T20:35:31;11.10;99.90
21267;DHT22;10791;53.108;18.326;2022-10-01T20:40:46;11.00;99.90
21267;DHT22;10791;53.108;18.326;2022-10-01T20:45:52;11.10;99.90
21267;DHT22;10791;53.108;18.326;2022-10-01T20:51:02;11.10;99.90
21267;DHT22;10791;53.108;18.326;2022-10-01T20:56:14;11.10;99.90
21267;DHT22;10791;53.108;18.326;2022-10-01T21:01:21;11.10;99.90
21267;DHT22;10791;53.108;18.326;2022-10-01T21:07:00;11.10;99.90
21267;DHT22;10791;53.108;18.326;2022-10-01T21:12:20;11.10;99.90
21267;DHT22;10791;53.108;18.326;2022-10-01T21:17:53;11.10;99.90
21267;DHT22;10791;53.108;18.326;2022-10-01T21:23:30;11.10;99.90
21267;DHT22;10791;53.108;18.326;2022-10-01T21:34:35;11.20;99.90
21267;DHT22;10791;53.108;18.326;2022-10-01T21:39:48;11.20;99.90
21267;DHT22;10791;53.108;18.326;2022-10-01T21:55:58;11.20;99.90
21267;DHT22;10791;53.108;18.326;2022-10-01T22:06:50;11.20;99.90
21267;DHT22;10791;53.108;18.326;2022-10-01T22:11:58;11.30;99.90
21267;DHT22;10791;53.108;18.326;2022-10-01T22:17:11;11.30;99.90
21267;DHT22;10791;53.108;18.326;2022-10-01T22:22:37;11.30;99.90
21267;DHT22;10791;53.108;18.326;2022-10-01T22:27:48;11.30;99.90
21267;DHT22;10791;53.108;18.326;2022-10-01T22:43:20;11.20;99.90
21267;DHT22;10791;53.108;18.326;2022-10-01T22:54:08;11.10;99.90
21267;DHT22;10791;53.108;18.326;2022-10-01T23:05:06;11.30;99.90
21267;DHT22;10791;53.108;18.326;2022-10-01T23:15:47;11.30;99.90
21267;DHT22;10791;53.108;18.326;2022-10-01T23:27:02;11.30;99.90
21267;DHT22;10791;53.108;18.326;2022-10-01T23:43:04;11.30;99.90
21267;DHT22;10791;53.108;18.326;2022-10-01T23:58:49;11.30;99.90
